sensor_id;sensor_type;location;lat;lon;timestamp;P1;durP1;ratioP1;P2;durP2;ratioP2
13743;SDS011;6943;52.368;9.966;2023-03-13T00:00:18;17.77;;;5.87;;
13743;SDS011;6943;52.368;9.966;2023-03-13T00:02:44;20.37;;;5.10;;
13743;SDS011;6943;52.368;9.966;2023-03-13T00:05:10;22.40;;;6.10;;
13743;SDS011;6943;52.368;9.966;2023-03-13T00:07:36;20.63;;;5.90;;
13743;SDS011;6943;52.368;9.966;2023-03-13T00:10:02;19.53;;;5.13;;
13743;SDS011;6943;52.368;9.966;2023-03-13T00:12:28;18.97;;;4.57;;
13743;SDS011;6943;52.368;9.966;2023-03-13T00:14:54;15.80;;;4.93;;
13743;SDS011;6943;52.368;9.966;2023-03-13T00:17:19;14.57;;;4.30;;
13743;SDS011;6943;52.368;9.966;2023-03-13T00:19:45;22.10;;;5.10;;
13743;SDS011;6943;52.368;9.966;2023-03-13T00:22:10;24.80;;;5.70;;
13743;SDS011;6943;52.368;9.966;2023-03-13T00:24:36;17.67;;;5.23;;
13743;SDS011;6943;52.368;9.966;2023-03-13T00:27:01;20.30;;;4.70;;
13743;SDS011;6943;52.368;9.966;2023-03-13T00:29:29;19.40;;;5.60;;
13743;SDS011;6943;52.368;9.966;2023-03-13T00:31:56;20.47;;;4.70;;
13743;SDS011;6943;52.368;9.966;2023-03-13T00:34:21;18.73;;;5.10;;
13743;SDS011;6943;52.368;9.966;2023-03-13T00:36:50;19.67;;;5.40;;
13743;SDS011;6943;52.368;9.966;2023-03-13T00:39:15;17.77;;;4.60;;
13743;SDS011;6943;52.368;9.966;2023-03-13T00:41:41;17.10;;;5.90;;
13743;SDS011;6943;52.368;9.966;2023-03-13T00:44:07;17.97;;;3.73;;
13743;SDS011;6943;52.368;9.966;2023-03-13T00:46:34;20.67;;;5.50;;
13743;SDS011;6943;52.368;9.966;2023-03-13T00:48:59;21.10;;;4.70;;
13743;SDS011;6943;52.368;9.966;2023-03-13T00:51:26;12.87;;;3.87;;
13743;SDS011;6943;52.368;9.966;2023-03-13T00:53:52;13.50;;;4.03;;
13743;SDS011;6943;52.368;9.966;2023-03-13T00:56:19;16.87;;;3.90;;
13743;SDS011;6943;52.368;9.966;2023-03-13T00:58:46;14.23;;;4.30;;
13743;SDS011;6943;52.368;9.966;2023-03-13T01:01:20;13.87;;;5.00;;
13743;SDS011;6943;52.368;9.966;2023-03-13T01:03:51;13.63;;;4.30;;
13743;SDS011;6943;52.368;9.966;2023-03-13T01:06:22;17.37;;;4.57;;
13743;SDS011;6943;52.368;9.966;2023-03-13T01:08:50;15.93;;;4.93;;
13743;SDS011;6943;52.368;9.966;2023-03-13T01:11:17;19.57;;;4.50;;
13743;SDS011;6943;52.368;9.966;2023-03-13T01:13:45;17.70;;;4.90;;
13743;SDS011;6943;52.368;9.966;2023-03-13T01:16:13;13.57;;;4.53;;
13743;SDS011;6943;52.368;9.966;2023-03-13T01:18:40;15.67;;;4.07;;
13743;SDS011;6943;52.368;9.966;2023-03-13T01:21:08;13.70;;;4.00;;
13743;SDS011;6943;52.368;9.966;2023-03-13T01:23:34;15.90;;;4.63;;
13743;SDS011;6943;52.368;9.966;2023-03-13T01:25:59;19.23;;;4.57;;
13743;SDS011;6943;52.368;9.966;2023-03-13T01:28:25;13.73;;;4.60;;
13743;SDS011;6943;52.368;9.966;2023-03-13T01:30:51;16.83;;;4.33;;
13743;SDS011;6943;52.368;9.966;2023-03-13T01:33:17;16.10;;;4.60;;
13743;SDS011;6943;52.368;9.966;2023-03-13T01:35:43;16.43;;;4.50;;
13743;SDS011;6943;52.368;9.966;2023-03-13T01:38:09;13.97;;;4.07;;
13743;SDS011;6943;52.368;9.966;2023-03-13T01:40:38;13.07;;;3.77;;
13743;SDS011;6943;52.368;9.966;2023-03-13T01:43:24;17.03;;;4.23;;
13743;SDS011;6943;52.368;9.966;2023-03-13T01:45:59;11.43;;;3.77;;
13743;SDS011;6943;52.368;9.966;2023-03-13T01:54:18;12.63;;;4.00;;
13743;SDS011;6943;52.368;9.966;2023-03-13T01:57:02;10.87;;;3.77;;
13743;SDS011;6943;52.368;9.966;2023-03-13T01:59:37;16.40;;;4.20;;
13743;SDS011;6943;52.368;9.966;2023-03-13T02:02:09;19.77;;;5.00;;
13743;SDS011;6943;52.368;9.966;2023-03-13T02:04:37;17.47;;;3.93;;
13743;SDS011;6943;52.368;9.966;2023-03-13T02:07:10;12.40;;;3.23;;
13743;SDS011;6943;52.368;9.966;2023-03-13T02:09:39;12.77;;;3.97;;
13743;SDS011;6943;52.368;9.966;2023-03-13T02:12:14;14.63;;;4.00;;
13743;SDS011;6943;52.368;9.966;2023-03-13T02:14:44;15.87;;;3.70;;
13743;SDS011;6943;52.368;9.966;2023-03-13T02:17:10;14.40;;;4.37;;
13743;SDS011;6943;52.368;9.966;2023-03-13T02:19:44;15.17;;;4.53;;
13743;SDS011;6943;52.368;9.966;2023-03-13T02:22:15;20.27;;;4.17;;
13743;SDS011;6943;52.368;9.966;2023-03-13T02:24:50;14.80;;;4.27;;
13743;SDS011;6943;52.368;9.966;2023-03-13T02:27:29;17.47;;;3.90;;
13743;SDS011;6943;52.368;9.966;2023-03-13T02:29:55;15.33;;;4.00;;
13743;SDS011;6943;52.368;9.966;2023-03-13T02:32:22;14.63;;;4.23;;
13743;SDS011;6943;52.368;9.966;2023-03-13T02:34:48;14.40;;;4.47;;
13743;SDS011;6943;52.368;9.966;2023-03-13T02:37:16;12.83;;;4.03;;
13743;SDS011;6943;52.368;9.966;2023-03-13T02:39:43;13.90;;;3.50;;
13743;SDS011;6943;52.368;9.966;2023-03-13T02:42:12;11.20;;;3.57;;
13743;SDS011;6943;52.368;9.966;2023-03-13T02:44:40;17.13;;;4.27;;
13743;SDS011;6943;52.368;9.966;2023-03-13T02:47:06;10.63;;;3.90;;
13743;SDS011;6943;52.368;9.966;2023-03-13T02:49:33;20.87;;;4.87;;
13743;SDS011;6943;52.368;9.966;2023-03-13T02:52:05;13.00;;;4.30;;
13743;SDS011;6943;52.368;9.966;2023-03-13T02:54:46;13.53;;;3.43;;
13743;SDS011;6943;52.368;9.966;2023-03-13T02:57:15;13.87;;;3.67;;
13743;SDS011;6943;52.368;9.966;2023-03-13T02:59:40;14.37;;;3.73;;
13743;SDS011;6943;52.368;9.966;2023-03-13T03:02:06;13.97;;;3.60;;
13743;SDS011;6943;52.368;9.966;2023-03-13T03:04:31;15.03;;;4.67;;
13743;SDS011;6943;52.368;9.966;2023-03-13T03:06:57;12.90;;;3.30;;
13743;SDS011;6943;52.368;9.966;2023-03-13T03:09:22;15.97;;;4.10;;
13743;SDS011;6943;52.368;9.966;2023-03-13T03:11:48;14.10;;;3.60;;
13743;SDS011;6943;52.368;9.966;2023-03-13T03:14:14;14.37;;;4.20;;
13743;SDS011;6943;52.368;9.966;2023-03-13T03:16:40;10.07;;;4.17;;
13743;SDS011;6943;52.368;9.966;2023-03-13T03:19:06;16.37;;;3.63;;
13743;SDS011;6943;52.368;9.966;2023-03-13T03:21:33;11.47;;;3.50;;
13743;SDS011;6943;52.368;9.966;2023-03-13T03:23:58;14.73;;;3.93;;
13743;SDS011;6943;52.368;9.966;2023-03-13T03:26:24;10.20;;;3.10;;
13743;SDS011;6943;52.368;9.966;2023-03-13T03:28:50;16.73;;;3.60;;
13743;SDS011;6943;52.368;9.966;2023-03-13T03:31:16;15.23;;;3.60;;
13743;SDS011;6943;52.368;9.966;2023-03-13T03:33:42;16.17;;;3.90;;
13743;SDS011;6943;52.368;9.966;2023-03-13T03:36:10;17.27;;;4.33;;
13743;SDS011;6943;52.368;9.966;2023-03-13T03:38:38;14.93;;;3.83;;
13743;SDS011;6943;52.368;9.966;2023-03-13T03:41:04;12.03;;;3.33;;
13743;SDS011;6943;52.368;9.966;2023-03-13T03:43:31;15.33;;;3.80;;
13743;SDS011;6943;52.368;9.966;2023-03-13T03:45:56;12.97;;;3.20;;
13743;SDS011;6943;52.368;9.966;2023-03-13T03:48:22;14.20;;;4.07;;
13743;SDS011;6943;52.368;9.966;2023-03-13T03:50:47;14.60;;;4.13;;
13743;SDS011;6943;52.368;9.966;2023-03-13T03:53:13;12.93;;;4.40;;
13743;SDS011;6943;52.368;9.966;2023-03-13T03:55:39;13.47;;;3.40;;
13743;SDS011;6943;52.368;9.966;2023-03-13T03:58:04;13.10;;;4.00;;
13743;SDS011;6943;52.368;9.966;2023-03-13T04:00:30;10.83;;;3.50;;
13743;SDS011;6943;52.368;9.966;2023-03-13T04:02:56;15.63;;;4.07;;
13743;SDS011;6943;52.368;9.966;2023-03-13T04:05:22;12.63;;;3.60;;
13743;SDS011;6943;52.368;9.966;2023-03-13T04:07:47;16.43;;;4.53;;
13743;SDS011;6943;52.368;9.966;2023-03-13T04:10:13;15.03;;;4.03;;
13743;SDS011;6943;52.368;9.966;2023-03-13T04:12:40;13.27;;;3.77;;
13743;SDS011;6943;52.368;9.966;2023-03-13T04:15:06;13.70;;;3.27;;
13743;SDS011;6943;52.368;9.966;2023-03-13T04:17:32;16.00;;;3.83;;
13743;SDS011;6943;52.368;9.966;2023-03-13T04:19:58;16.83;;;3.97;;
13743;SDS011;6943;52.368;9.966;2023-03-13T04:22:23;17.90;;;4.37;;
13743;SDS011;6943;52.368;9.966;2023-03-13T04:24:49;19.83;;;3.83;;
13743;SDS011;6943;52.368;9.966;2023-03-13T04:27:14;11.67;;;4.10;;
13743;SDS011;6943;52.368;9.966;2023-03-13T04:29:40;16.90;;;4.70;;
13743;SDS011;6943;52.368;9.966;2023-03-13T04:32:05;12.27;;;3.37;;
13743;SDS011;6943;52.368;9.966;2023-03-13T04:34:31;11.37;;;3.37;;
13743;SDS011;6943;52.368;9.966;2023-03-13T04:36:57;17.60;;;4.17;;
13743;SDS011;6943;52.368;9.966;2023-03-13T04:39:22;19.37;;;3.63;;
13743;SDS011;6943;52.368;9.966;2023-03-13T04:41:52;15.13;;;3.90;;
13743;SDS011;6943;52.368;9.966;2023-03-13T04:44:18;13.90;;;3.40;;
13743;SDS011;6943;52.368;9.966;2023-03-13T04:46:44;14.93;;;3.67;;
13743;SDS011;6943;52.368;9.966;2023-03-13T04:49:10;16.90;;;3.93;;
13743;SDS011;6943;52.368;9.966;2023-03-13T04:51:36;8.93;;;3.00;;
13743;SDS011;6943;52.368;9.966;2023-03-13T04:54:01;11.70;;;4.13;;
13743;SDS011;6943;52.368;9.966;2023-03-13T04:56:27;17.23;;;4.23;;
13743;SDS011;6943;52.368;9.966;2023-03-13T04:58:53;14.73;;;4.07;;
13743;SDS011;6943;52.368;9.966;2023-03-13T05:01:18;14.37;;;3.57;;
13743;SDS011;6943;52.368;9.966;2023-03-13T05:03:44;13.07;;;3.33;;
13743;SDS011;6943;52.368;9.966;2023-03-13T05:06:10;8.87;;;3.20;;
13743;SDS011;6943;52.368;9.966;2023-03-13T05:08:36;10.30;;;3.43;;
13743;SDS011;6943;52.368;9.966;2023-03-13T05:11:02;14.13;;;3.80;;
13743;SDS011;6943;52.368;9.966;2023-03-13T05:13:28;9.20;;;3.47;;
13743;SDS011;6943;52.368;9.966;2023-03-13T05:15:53;15.23;;;3.73;;
13743;SDS011;6943;52.368;9.966;2023-03-13T05:18:18;14.33;;;3.93;;
13743;SDS011;6943;52.368;9.966;2023-03-13T05:20:44;13.23;;;3.60;;
13743;SDS011;6943;52.368;9.966;2023-03-13T05:23:09;10.70;;;3.47;;
13743;SDS011;6943;52.368;9.966;2023-03-13T05:25:35;11.63;;;3.07;;
13743;SDS011;6943;52.368;9.966;2023-03-13T05:28:01;12.90;;;3.50;;
13743;SDS011;6943;52.368;9.966;2023-03-13T05:30:26;14.03;;;3.67;;
13743;SDS011;6943;52.368;9.966;2023-03-13T05:32:52;14.97;;;3.43;;
13743;SDS011;6943;52.368;9.966;2023-03-13T05:35:17;9.93;;;3.30;;
13743;SDS011;6943;52.368;9.966;2023-03-13T05:37:43;12.97;;;3.80;;
13743;SDS011;6943;52.368;9.966;2023-03-13T05:40:09;11.10;;;3.30;;
13743;SDS011;6943;52.368;9.966;2023-03-13T05:42:35;13.27;;;3.40;;
13743;SDS011;6943;52.368;9.966;2023-03-13T05:45:01;14.33;;;3.37;;
13743;SDS011;6943;52.368;9.966;2023-03-13T05:47:27;11.23;;;3.17;;
13743;SDS011;6943;52.368;9.966;2023-03-13T05:49:52;11.93;;;2.53;;
13743;SDS011;6943;52.368;9.966;2023-03-13T05:52:18;9.60;;;2.70;;
13743;SDS011;6943;52.368;9.966;2023-03-13T05:54:43;10.10;;;3.37;;
13743;SDS011;6943;52.368;9.966;2023-03-13T05:57:09;9.87;;;2.83;;
13743;SDS011;6943;52.368;9.966;2023-03-13T05:59:34;10.70;;;2.60;;
13743;SDS011;6943;52.368;9.966;2023-03-13T06:02:00;10.90;;;3.00;;
13743;SDS011;6943;52.368;9.966;2023-03-13T06:04:25;8.93;;;3.17;;
13743;SDS011;6943;52.368;9.966;2023-03-13T06:06:51;15.13;;;3.43;;
13743;SDS011;6943;52.368;9.966;2023-03-13T06:09:16;9.00;;;2.77;;
13743;SDS011;6943;52.368;9.966;2023-03-13T06:11:42;6.47;;;2.90;;
13743;SDS011;6943;52.368;9.966;2023-03-13T06:14:07;12.80;;;2.90;;
13743;SDS011;6943;52.368;9.966;2023-03-13T06:16:33;11.17;;;2.90;;
13743;SDS011;6943;52.368;9.966;2023-03-13T06:18:58;10.33;;;2.60;;
13743;SDS011;6943;52.368;9.966;2023-03-13T06:21:24;5.63;;;2.53;;
13743;SDS011;6943;52.368;9.966;2023-03-13T06:23:50;10.10;;;3.83;;
13743;SDS011;6943;52.368;9.966;2023-03-13T06:26:15;9.20;;;3.00;;
13743;SDS011;6943;52.368;9.966;2023-03-13T06:28:41;11.30;;;2.77;;
13743;SDS011;6943;52.368;9.966;2023-03-13T06:31:06;9.80;;;3.10;;
13743;SDS011;6943;52.368;9.966;2023-03-13T06:33:32;7.60;;;2.70;;
13743;SDS011;6943;52.368;9.966;2023-03-13T06:35:59;6.67;;;2.97;;
13743;SDS011;6943;52.368;9.966;2023-03-13T06:38:25;11.67;;;3.33;;
13743;SDS011;6943;52.368;9.966;2023-03-13T06:40:51;7.17;;;3.00;;
13743;SDS011;6943;52.368;9.966;2023-03-13T06:43:17;9.37;;;3.10;;
13743;SDS011;6943;52.368;9.966;2023-03-13T06:45:43;9.73;;;2.50;;
13743;SDS011;6943;52.368;9.966;2023-03-13T06:48:08;10.20;;;3.13;;
13743;SDS011;6943;52.368;9.966;2023-03-13T06:50:36;11.37;;;3.00;;
13743;SDS011;6943;52.368;9.966;2023-03-13T06:53:03;9.43;;;2.60;;
13743;SDS011;6943;52.368;9.966;2023-03-13T06:55:28;11.57;;;3.20;;
13743;SDS011;6943;52.368;9.966;2023-03-13T06:57:53;5.30;;;2.20;;
13743;SDS011;6943;52.368;9.966;2023-03-13T07:00:19;10.03;;;2.03;;
13743;SDS011;6943;52.368;9.966;2023-03-13T07:02:45;6.13;;;2.50;;
13743;SDS011;6943;52.368;9.966;2023-03-13T07:05:11;10.50;;;2.20;;
13743;SDS011;6943;52.368;9.966;2023-03-13T07:07:38;7.97;;;2.60;;
13743;SDS011;6943;52.368;9.966;2023-03-13T07:10:05;7.33;;;2.43;;
13743;SDS011;6943;52.368;9.966;2023-03-13T07:12:31;5.37;;;2.50;;
13743;SDS011;6943;52.368;9.966;2023-03-13T07:14:59;3.67;;;2.00;;
13743;SDS011;6943;52.368;9.966;2023-03-13T07:17:24;7.47;;;2.43;;
13743;SDS011;6943;52.368;9.966;2023-03-13T07:19:50;6.30;;;1.60;;
13743;SDS011;6943;52.368;9.966;2023-03-13T07:22:15;4.67;;;1.87;;
13743;SDS011;6943;52.368;9.966;2023-03-13T07:24:41;4.23;;;1.73;;
13743;SDS011;6943;52.368;9.966;2023-03-13T07:27:06;5.40;;;1.50;;
13743;SDS011;6943;52.368;9.966;2023-03-13T07:29:32;4.30;;;1.57;;
13743;SDS011;6943;52.368;9.966;2023-03-13T07:31:57;2.37;;;1.70;;
13743;SDS011;6943;52.368;9.966;2023-03-13T07:34:23;3.37;;;1.30;;
13743;SDS011;6943;52.368;9.966;2023-03-13T07:36:48;2.53;;;1.47;;
13743;SDS011;6943;52.368;9.966;2023-03-13T07:39:14;6.63;;;1.77;;
13743;SDS011;6943;52.368;9.966;2023-03-13T07:41:39;4.20;;;1.30;;
13743;SDS011;6943;52.368;9.966;2023-03-13T07:44:06;2.87;;;1.40;;
13743;SDS011;6943;52.368;9.966;2023-03-13T07:46:31;2.43;;;1.50;;
13743;SDS011;6943;52.368;9.966;2023-03-13T07:48:57;2.00;;;1.50;;
13743;SDS011;6943;52.368;9.966;2023-03-13T07:51:23;4.37;;;1.90;;
13743;SDS011;6943;52.368;9.966;2023-03-13T07:53:50;4.53;;;1.90;;
13743;SDS011;6943;52.368;9.966;2023-03-13T07:56:17;5.60;;;1.43;;
13743;SDS011;6943;52.368;9.966;2023-03-13T07:58:44;4.83;;;1.90;;
13743;SDS011;6943;52.368;9.966;2023-03-13T08:01:11;3.27;;;1.67;;
13743;SDS011;6943;52.368;9.966;2023-03-13T08:03:39;4.00;;;1.80;;
13743;SDS011;6943;52.368;9.966;2023-03-13T08:06:09;2.80;;;1.50;;
13743;SDS011;6943;52.368;9.966;2023-03-13T08:08:36;2.70;;;2.23;;
13743;SDS011;6943;52.368;9.966;2023-03-13T08:11:06;2.13;;;1.93;;
13743;SDS011;6943;52.368;9.966;2023-03-13T08:13:42;4.93;;;1.47;;
13743;SDS011;6943;52.368;9.966;2023-03-13T08:18:44;5.90;;;2.00;;
13743;SDS011;6943;52.368;9.966;2023-03-13T08:21:12;6.40;;;2.23;;
13743;SDS011;6943;52.368;9.966;2023-03-13T08:23:39;2.60;;;1.60;;
13743;SDS011;6943;52.368;9.966;2023-03-13T08:26:06;2.43;;;1.60;;
13743;SDS011;6943;52.368;9.966;2023-03-13T08:28:34;2.57;;;1.67;;
13743;SDS011;6943;52.368;9.966;2023-03-13T08:31:13;5.07;;;1.93;;
13743;SDS011;6943;52.368;9.966;2023-03-13T08:33:43;3.07;;;1.47;;
13743;SDS011;6943;52.368;9.966;2023-03-13T08:36:14;2.10;;;1.47;;
13743;SDS011;6943;52.368;9.966;2023-03-13T08:38:49;2.07;;;1.40;;
13743;SDS011;6943;52.368;9.966;2023-03-13T08:41:17;2.43;;;1.97;;
13743;SDS011;6943;52.368;9.966;2023-03-13T08:43:45;2.37;;;1.83;;
13743;SDS011;6943;52.368;9.966;2023-03-13T08:46:11;2.90;;;1.57;;
13743;SDS011;6943;52.368;9.966;2023-03-13T08:48:37;2.93;;;1.67;;
13743;SDS011;6943;52.368;9.966;2023-03-13T08:51:04;3.97;;;1.70;;
13743;SDS011;6943;52.368;9.966;2023-03-13T08:53:36;3.57;;;1.87;;
13743;SDS011;6943;52.368;9.966;2023-03-13T08:56:03;1.97;;;1.77;;
13743;SDS011;6943;52.368;9.966;2023-03-13T08:58:30;3.43;;;2.33;;
13743;SDS011;6943;52.368;9.966;2023-03-13T09:01:02;4.90;;;2.27;;
13743;SDS011;6943;52.368;9.966;2023-03-13T09:03:29;4.30;;;1.90;;
13743;SDS011;6943;52.368;9.966;2023-03-13T09:05:56;4.47;;;2.17;;
13743;SDS011;6943;52.368;9.966;2023-03-13T09:08:22;3.37;;;2.30;;
13743;SDS011;6943;52.368;9.966;2023-03-13T09:10:53;2.30;;;1.60;;
13743;SDS011;6943;52.368;9.966;2023-03-13T09:13:27;3.33;;;1.80;;
13743;SDS011;6943;52.368;9.966;2023-03-13T09:16:00;2.63;;;1.93;;
13743;SDS011;6943;52.368;9.966;2023-03-13T09:18:28;2.43;;;1.80;;
13743;SDS011;6943;52.368;9.966;2023-03-13T09:20:54;1.77;;;1.60;;
13743;SDS011;6943;52.368;9.966;2023-03-13T09:23:19;1.90;;;1.47;;
13743;SDS011;6943;52.368;9.966;2023-03-13T09:25:47;3.10;;;1.53;;
13743;SDS011;6943;52.368;9.966;2023-03-13T09:28:13;3.37;;;1.80;;
13743;SDS011;6943;52.368;9.966;2023-03-13T09:30:39;5.10;;;2.00;;
13743;SDS011;6943;52.368;9.966;2023-03-13T09:33:05;3.43;;;1.97;;
13743;SDS011;6943;52.368;9.966;2023-03-13T09:35:30;3.23;;;1.60;;
13743;SDS011;6943;52.368;9.966;2023-03-13T09:37:56;2.47;;;1.97;;
13743;SDS011;6943;52.368;9.966;2023-03-13T09:40:21;4.37;;;3.10;;
13743;SDS011;6943;52.368;9.966;2023-03-13T09:42:51;2.00;;;1.63;;
13743;SDS011;6943;52.368;9.966;2023-03-13T09:45:27;2.53;;;2.23;;
13743;SDS011;6943;52.368;9.966;2023-03-13T09:48:06;1.73;;;1.40;;
13743;SDS011;6943;52.368;9.966;2023-03-13T09:50:55;2.13;;;1.70;;
13743;SDS011;6943;52.368;9.966;2023-03-13T09:53:40;2.40;;;1.27;;
13743;SDS011;6943;52.368;9.966;2023-03-13T09:56:16;2.60;;;1.53;;
13743;SDS011;6943;52.368;9.966;2023-03-13T09:58:49;3.97;;;1.73;;
13743;SDS011;6943;52.368;9.966;2023-03-13T10:01:19;3.23;;;1.70;;
13743;SDS011;6943;52.368;9.966;2023-03-13T10:03:53;1.70;;;1.27;;
13743;SDS011;6943;52.368;9.966;2023-03-13T10:06:32;3.07;;;1.47;;
13743;SDS011;6943;52.368;9.966;2023-03-13T10:09:02;4.23;;;1.77;;
13743;SDS011;6943;52.368;9.966;2023-03-13T10:11:33;6.17;;;1.70;;
13743;SDS011;6943;52.368;9.966;2023-03-13T10:14:16;2.70;;;1.30;;
13743;SDS011;6943;52.368;9.966;2023-03-13T10:19:39;3.63;;;1.40;;
13743;SDS011;6943;52.368;9.966;2023-03-13T10:22:15;3.13;;;1.50;;
13743;SDS011;6943;52.368;9.966;2023-03-13T10:27:14;3.27;;;1.40;;
13743;SDS011;6943;52.368;9.966;2023-03-13T10:29:40;2.63;;;1.60;;
13743;SDS011;6943;52.368;9.966;2023-03-13T10:32:06;2.37;;;1.33;;
13743;SDS011;6943;52.368;9.966;2023-03-13T10:34:54;1.90;;;1.50;;
13743;SDS011;6943;52.368;9.966;2023-03-13T10:37:22;2.80;;;1.60;;
13743;SDS011;6943;52.368;9.966;2023-03-13T10:39:53;2.20;;;1.50;;
13743;SDS011;6943;52.368;9.966;2023-03-13T10:42:23;2.03;;;1.53;;
13743;SDS011;6943;52.368;9.966;2023-03-13T10:44:55;2.63;;;1.63;;
13743;SDS011;6943;52.368;9.966;2023-03-13T10:47:23;3.00;;;1.50;;
13743;SDS011;6943;52.368;9.966;2023-03-13T10:49:50;4.67;;;1.90;;
13743;SDS011;6943;52.368;9.966;2023-03-13T10:52:40;2.63;;;1.63;;
13743;SDS011;6943;52.368;9.966;2023-03-13T10:55:09;4.43;;;1.73;;
13743;SDS011;6943;52.368;9.966;2023-03-13T10:57:59;4.73;;;1.93;;
13743;SDS011;6943;52.368;9.966;2023-03-13T11:00:37;3.03;;;1.70;;
13743;SDS011;6943;52.368;9.966;2023-03-13T11:03:05;3.47;;;1.50;;
13743;SDS011;6943;52.368;9.966;2023-03-13T11:05:42;2.40;;;1.63;;
13743;SDS011;6943;52.368;9.966;2023-03-13T11:08:12;2.17;;;1.70;;
13743;SDS011;6943;52.368;9.966;2023-03-13T11:10:53;3.23;;;1.80;;
13743;SDS011;6943;52.368;9.966;2023-03-13T11:13:30;2.17;;;1.60;;
13743;SDS011;6943;52.368;9.966;2023-03-13T11:16:09;3.83;;;1.50;;
13743;SDS011;6943;52.368;9.966;2023-03-13T11:21:22;2.83;;;1.40;;
13743;SDS011;6943;52.368;9.966;2023-03-13T11:23:57;3.33;;;1.80;;
13743;SDS011;6943;52.368;9.966;2023-03-13T11:26:35;2.80;;;1.50;;
13743;SDS011;6943;52.368;9.966;2023-03-13T11:32:19;3.73;;;1.50;;
13743;SDS011;6943;52.368;9.966;2023-03-13T11:34:52;3.53;;;1.40;;
13743;SDS011;6943;52.368;9.966;2023-03-13T11:37:21;3.00;;;1.80;;
13743;SDS011;6943;52.368;9.966;2023-03-13T11:51:16;3.30;;;1.90;;
13743;SDS011;6943;52.368;9.966;2023-03-13T11:57:09;4.73;;;1.43;;
13743;SDS011;6943;52.368;9.966;2023-03-13T12:02:54;2.67;;;1.30;;
13743;SDS011;6943;52.368;9.966;2023-03-13T12:05:44;3.30;;;1.67;;
13743;SDS011;6943;52.368;9.966;2023-03-13T12:08:33;3.47;;;1.50;;
13743;SDS011;6943;52.368;9.966;2023-03-13T12:13:34;3.17;;;1.50;;
13743;SDS011;6943;52.368;9.966;2023-03-13T12:16:05;2.73;;;1.60;;
13743;SDS011;6943;52.368;9.966;2023-03-13T12:18:39;2.30;;;1.40;;
13743;SDS011;6943;52.368;9.966;2023-03-13T12:23:49;1.37;;;1.10;;
13743;SDS011;6943;52.368;9.966;2023-03-13T12:26:20;3.10;;;1.40;;
13743;SDS011;6943;52.368;9.966;2023-03-13T12:29:07;2.60;;;1.43;;
13743;SDS011;6943;52.368;9.966;2023-03-13T12:32:28;2.70;;;1.20;;
13743;SDS011;6943;52.368;9.966;2023-03-13T12:43:26;2.70;;;1.50;;
13743;SDS011;6943;52.368;9.966;2023-03-13T12:48:40;2.33;;;1.57;;
13743;SDS011;6943;52.368;9.966;2023-03-13T12:51:54;3.67;;;1.60;;
13743;SDS011;6943;52.368;9.966;2023-03-13T12:54:42;2.77;;;1.43;;
13743;SDS011;6943;52.368;9.966;2023-03-13T12:57:26;1.43;;;1.23;;
13743;SDS011;6943;52.368;9.966;2023-03-13T13:00:24;4.30;;;1.50;;
13743;SDS011;6943;52.368;9.966;2023-03-13T13:05:33;2.50;;;1.70;;
13743;SDS011;6943;52.368;9.966;2023-03-13T13:07:58;1.50;;;1.33;;
13743;SDS011;6943;52.368;9.966;2023-03-13T13:10:24;1.40;;;1.30;;
13743;SDS011;6943;52.368;9.966;2023-03-13T13:18:28;4.43;;;1.63;;
13743;SDS011;6943;52.368;9.966;2023-03-13T13:21:40;1.90;;;1.47;;
13743;SDS011;6943;52.368;9.966;2023-03-13T13:23:42;2.40;;;1.33;;
13743;SDS011;6943;52.368;9.966;2023-03-13T13:28:55;4.07;;;2.13;;
13743;SDS011;6943;52.368;9.966;2023-03-13T13:36:52;5.13;;;1.67;;
13743;SDS011;6943;52.368;9.966;2023-03-13T13:39:47;1.60;;;1.30;;
13743;SDS011;6943;52.368;9.966;2023-03-13T13:47:39;2.07;;;1.30;;
13743;SDS011;6943;52.368;9.966;2023-03-13T13:50:16;2.13;;;1.00;;
13743;SDS011;6943;52.368;9.966;2023-03-13T13:52:44;1.43;;;1.00;;
13743;SDS011;6943;52.368;9.966;2023-03-13T13:57:46;1.13;;;0.80;;
13743;SDS011;6943;52.368;9.966;2023-03-13T14:02:50;3.60;;;1.10;;
13743;SDS011;6943;52.368;9.966;2023-03-13T14:05:22;2.30;;;0.90;;
13743;SDS011;6943;52.368;9.966;2023-03-13T14:07:54;1.13;;;0.80;;
13743;SDS011;6943;52.368;9.966;2023-03-13T14:12:55;2.47;;;0.90;;
13743;SDS011;6943;52.368;9.966;2023-03-13T14:15:28;2.10;;;1.10;;
13743;SDS011;6943;52.368;9.966;2023-03-13T14:17:59;0.93;;;0.70;;
13743;SDS011;6943;52.368;9.966;2023-03-13T14:20:39;2.07;;;1.00;;
13743;SDS011;6943;52.368;9.966;2023-03-13T14:23:31;1.23;;;1.00;;
13743;SDS011;6943;52.368;9.966;2023-03-13T14:26:07;2.07;;;1.20;;
13743;SDS011;6943;52.368;9.966;2023-03-13T14:28:39;2.30;;;1.00;;
13743;SDS011;6943;52.368;9.966;2023-03-13T14:31:07;3.23;;;0.97;;
13743;SDS011;6943;52.368;9.966;2023-03-13T14:33:33;3.13;;;1.10;;
13743;SDS011;6943;52.368;9.966;2023-03-13T14:36:00;2.00;;;0.90;;
13743;SDS011;6943;52.368;9.966;2023-03-13T14:38:26;4.70;;;1.37;;
13743;SDS011;6943;52.368;9.966;2023-03-13T14:40:54;1.97;;;1.03;;
13743;SDS011;6943;52.368;9.966;2023-03-13T14:45:59;3.03;;;1.43;;
13743;SDS011;6943;52.368;9.966;2023-03-13T14:48:37;2.47;;;1.20;;
13743;SDS011;6943;52.368;9.966;2023-03-13T14:51:10;1.33;;;1.00;;
13743;SDS011;6943;52.368;9.966;2023-03-13T14:53:53;3.20;;;0.80;;
13743;SDS011;6943;52.368;9.966;2023-03-13T14:56:33;2.10;;;0.87;;
13743;SDS011;6943;52.368;9.966;2023-03-13T15:01:43;1.57;;;0.80;;
13743;SDS011;6943;52.368;9.966;2023-03-13T15:04:10;2.00;;;1.20;;
13743;SDS011;6943;52.368;9.966;2023-03-13T15:06:36;1.63;;;0.70;;
13743;SDS011;6943;52.368;9.966;2023-03-13T15:14:30;2.40;;;1.10;;
13743;SDS011;6943;52.368;9.966;2023-03-13T15:17:02;1.70;;;1.07;;
13743;SDS011;6943;52.368;9.966;2023-03-13T15:19:28;1.53;;;1.03;;
13743;SDS011;6943;52.368;9.966;2023-03-13T15:21:55;3.10;;;1.03;;
13743;SDS011;6943;52.368;9.966;2023-03-13T15:24:21;1.70;;;1.10;;
13743;SDS011;6943;52.368;9.966;2023-03-13T15:26:46;1.17;;;1.03;;
13743;SDS011;6943;52.368;9.966;2023-03-13T15:29:12;1.67;;;1.07;;
13743;SDS011;6943;52.368;9.966;2023-03-13T15:31:38;2.80;;;1.20;;
13743;SDS011;6943;52.368;9.966;2023-03-13T15:34:05;1.93;;;0.80;;
13743;SDS011;6943;52.368;9.966;2023-03-13T15:36:34;1.23;;;0.83;;
13743;SDS011;6943;52.368;9.966;2023-03-13T15:38:59;1.77;;;1.00;;
13743;SDS011;6943;52.368;9.966;2023-03-13T15:41:25;1.17;;;0.90;;
13743;SDS011;6943;52.368;9.966;2023-03-13T15:43:50;2.57;;;1.13;;
13743;SDS011;6943;52.368;9.966;2023-03-13T15:46:16;1.13;;;1.03;;
13743;SDS011;6943;52.368;9.966;2023-03-13T15:48:43;1.20;;;1.00;;
13743;SDS011;6943;52.368;9.966;2023-03-13T15:51:09;0.80;;;0.80;;
13743;SDS011;6943;52.368;9.966;2023-03-13T15:53:38;3.67;;;0.70;;
13743;SDS011;6943;52.368;9.966;2023-03-13T15:56:14;0.90;;;0.80;;
13743;SDS011;6943;52.368;9.966;2023-03-13T15:58:41;1.43;;;0.80;;
13743;SDS011;6943;52.368;9.966;2023-03-13T16:01:08;1.97;;;0.97;;
13743;SDS011;6943;52.368;9.966;2023-03-13T16:03:37;8.27;;;5.20;;
13743;SDS011;6943;52.368;9.966;2023-03-13T16:06:08;1.30;;;1.13;;
13743;SDS011;6943;52.368;9.966;2023-03-13T16:08:36;1.73;;;0.80;;
13743;SDS011;6943;52.368;9.966;2023-03-13T16:11:01;1.97;;;0.90;;
13743;SDS011;6943;52.368;9.966;2023-03-13T16:13:27;1.10;;;0.80;;
13743;SDS011;6943;52.368;9.966;2023-03-13T16:15:52;0.80;;;0.70;;
13743;SDS011;6943;52.368;9.966;2023-03-13T16:18:19;1.00;;;0.90;;
13743;SDS011;6943;52.368;9.966;2023-03-13T16:20:46;0.90;;;0.80;;
13743;SDS011;6943;52.368;9.966;2023-03-13T16:23:12;1.70;;;0.90;;
13743;SDS011;6943;52.368;9.966;2023-03-13T16:25:38;2.80;;;1.27;;
13743;SDS011;6943;52.368;9.966;2023-03-13T16:28:04;1.87;;;1.27;;
13743;SDS011;6943;52.368;9.966;2023-03-13T16:30:31;1.13;;;1.03;;
13743;SDS011;6943;52.368;9.966;2023-03-13T16:32:58;4.20;;;0.90;;
13743;SDS011;6943;52.368;9.966;2023-03-13T16:35:24;0.80;;;0.73;;
13743;SDS011;6943;52.368;9.966;2023-03-13T16:37:50;1.57;;;0.80;;
13743;SDS011;6943;52.368;9.966;2023-03-13T16:40:18;1.00;;;0.87;;